East Windsor, CT

10:13 AM EDT on August 28, 2015 (GMT -0400)
Ellington Weather | | Change Station
CLOSE
Current Station
Personal Weather Station
Location: Ellington, CT
Elevation: 283 ft
Nearby Weather Stations

Elev 283 ft 41.90 °N, 72.49 °W | Updated 8 seconds ago

Clear
Clear
68.2 °F
Feels Like 68.2 °F
N
6.0
Wind Variable Wind from ESE
Gusts 8.0 mph

Today
High -- | Low -- °F
--% Chance of Precip.
Yesterday
High -- | Low -- °F
Precip. -- in
6:11 AM 7:30 PM
Waxing Gibbous, 98% visible
Pressure 30.17 in
Visibility 10.0 miles
Clouds Few 2500 ft
Few 25000 ft
Dew Point 58 °F
Humidity 70%
Rainfall 0.00 in
Snow Depth Not available.
UV 5 out of 12
Pollen 9.70 out of 12
Air Quality Not available.
Flu Activity Not available.
METAR KBDL 281351Z VRB03KT 10SM FEW025 FEW250 21/13 A3017 RMK AO2 SLP214 T02060133
Pressure 30.17 in
Visibility 10.0 miles
Clouds Few 2500 ft
Few 25000 ft
Dew Point 58 °F
Humidity 70%
Rainfall 0.00 in
Snow Depth Not available.
UV 5 out of 12
Pollen 9.70 out of 12
Air Quality Not available.
Flu Activity Not available.
METAR KBDL 281351Z VRB03KT 10SM FEW025 FEW250 21/13 A3017 RMK AO2 SLP214 T02060133

10-Day Weather Forecast

×

Almanac

Astronomy

Aug. 28, 2015 Rise Set
Actual Time
Civil Twilight
Nautical Twilight
Astronomical Twilight
Moon
Length of Visible Light
Length of Day
Tomorrow will be .
, % of the Moon is Illuminated

Today's Extremes

State Highs State Lows

Community

WunderPhotos

Upload Photos

1,850,379 photos uploaded!

WunderBlogs® & News

Nearby

Air Quality

  Air Quality AQ Index Pollutant
Not available.

Snow Depth

Station Depth Elevation

Earthquake Activity

City Distance Mag. Time & Date
Minimum magnitude displayed is 2.5.

Coastal Water Temperatures

Place Temperature

Stations

Nearby Weather Stations

Station Location Temp. Windchill Dew Point Humidity Wind Precip. Elev Updated Type